Aérodrome :
LOGIN :

S'inscrire | Disclaimer

   EN    FR    IT 

 










Légende :    VFR   VFR Marginal   IFR   IFR Intensif   IFR Très Intensif
Visi : 
Plafond : 
>= 8 km
>= 3000ft
5 à 8 km
1000 à 3000 ft
1500m à 5 km
500 à 1000 ft
800 à 1500m
200 à 500 ft
< 800m
< 200 ft
Symboles :   Orages  Brouillard  Fortes neiges  Fortes précipitations  Vent > 20 kt
SIGMETs :   Divers  Orages  Givrage  Turbulence  Onde Orograph.  Cendres Volcan.







- Altitude de l'aérodrome : 202 ft
- Code IATA : LGW
- Voir les cartes d'approche


EGKK - London Gatwick

DERNIER METAR :
  • 210120Z 21005KT 180V250 CAVOK 08/07 Q1023

METARs EXPIRÉS :
  • 210050Z 21004KT 160V240 CAVOK 08/06 Q1023
  • 210020Z 21005KT CAVOK 08/06 Q1023
  • 202350Z 21005KT CAVOK 08/06 Q1023
  • 202320Z 22006KT CAVOK 08/06 Q1023
  • 202250Z 21007KT CAVOK 08/06 Q1022

TAF TAF EGKK
Valide du 21 à 00h jusqu'au 22 à 06h UTC


202300Z 2100/2206 21006KT 9999 SCT015
PROB30
TEMPO 2100/2104 8000
TEMPO 2104/2116 7000 BKN009
PROB30
TEMPO 2105/2110 3000 BR BKN004
BECMG 2116/2119 BKN014
TEMPO 2120/2206 3000 BR BKN004
PROB30
TEMPO 2200/2206 0900 FG BKN001
Pas de NOTAMs connus pour ce terrain.



MET'MAP, la Météo Aéronautique d'un coup d'oeil ! - Copyright ORBIFLY Décembre 2007 - Disclaimer

ORBIFLY MET'MAP TEAM :

Programmation & Développement : Alexandra Zaïnal
Conception & Développement : Baudouin d'Aumeries
Co-Programmation & Développement : Marc-Olivier Méhu
Soutien technique & logistique : Manuel Goepfert

Contact : metmap@orbifly.com




SOURCES & CREDITS :

   NOAA